Time;durP1;ratioP1;P1;durP2;ratioP2;P2;SDS_P1;SDS_P2;PMS_P1;PMS_P2;Temp;Humidity;BMP_temperature;BMP_pressure;BME280_temperature;BME280_humidity;BME280_pressure;Samples;Min_cycle;Max_cycle;Signal;HPM_P1;HPM_P2
2023/08/29 00:01:33;;;;;;;3.80;3.50;;;14.90;99.90;;;;;;5010813;28;20487;-72
2023/08/29 00:03:59;;;;;;;3.70;3.30;;;14.90;99.90;;;;;;5013062;28;20459;-73
2023/08/29 00:06:27;;;;;;;3.50;3.20;;;14.90;99.90;;;;;;5012501;28;20943;-73
2023/08/29 00:08:53;;;;;;;5.03;3.73;;;14.90;99.90;;;;;;5013277;28;20468;-73
2023/08/29 00:11:21;;;;;;;4.40;3.67;;;14.90;99.90;;;;;;5012905;28;21001;-73
2023/08/29 00:13:48;;;;;;;3.40;3.20;;;14.90;99.90;;;;;;5012235;28;20532;-70
2023/08/29 00:16:16;;;;;;;3.73;3.30;;;14.90;99.90;;;;;;5012969;28;20442;-73
2023/08/29 00:18:43;;;;;;;3.70;3.40;;;14.90;99.90;;;;;;5011084;28;20458;-72
2023/08/29 00:21:09;;;;;;;5.27;3.30;;;14.90;99.90;;;;;;5013110;28;20547;-72
2023/08/29 00:23:36;;;;;;;3.40;2.87;;;14.90;99.90;;;;;;5008053;28;20872;-72
2023/08/29 00:26:03;;;;;;;4.60;3.27;;;14.90;99.90;;;;;;5012968;28;20459;-73
2023/08/29 00:28:31;;;;;;;3.90;3.50;;;14.90;99.90;;;;;;5012744;28;20516;-73
2023/08/29 00:30:57;;;;;;;3.37;3.07;;;14.90;99.90;;;;;;5005113;28;20553;-73
2023/08/29 00:33:24;;;;;;;7.30;3.03;;;15.00;99.90;;;;;;5006568;28;20833;-72
2023/08/29 00:35:51;;;;;;;6.23;3.37;;;15.00;99.90;;;;;;5012183;28;20501;-72
2023/08/29 00:38:18;;;;;;;3.73;3.53;;;15.00;99.90;;;;;;5009849;28;20460;-72
2023/08/29 00:40:45;;;;;;;3.37;3.07;;;14.90;99.90;;;;;;5009994;28;20911;-72
2023/08/29 00:43:11;;;;;;;3.97;3.13;;;14.90;99.90;;;;;;5012695;28;20429;-72
2023/08/29 00:45:40;;;;;;;9.20;3.83;;;14.90;99.90;;;;;;5012546;28;20436;-72
2023/08/29 00:48:08;;;;;;;5.60;3.30;;;14.90;99.90;;;;;;5012691;28;20468;-72
2023/08/29 00:50:35;;;;;;;5.10;3.40;;;14.80;99.90;;;;;;5012166;28;21162;-73
2023/08/29 00:53:04;;;;;;;3.90;3.50;;;14.80;99.90;;;;;;5012165;28;20876;-72
2023/08/29 00:55:34;;;;;;;6.77;3.50;;;14.80;99.90;;;;;;5005597;28;20851;-72
2023/08/29 00:58:02;;;;;;;6.23;3.77;;;14.80;99.90;;;;;;5012486;28;20446;-72
2023/08/29 01:00:30;;;;;;;4.90;3.50;;;14.80;99.90;;;;;;5011816;28;20469;-72
2023/08/29 01:02:59;;;;;;;7.03;3.43;;;14.70;99.90;;;;;;5012332;28;20423;-72
2023/08/29 01:05:25;;;;;;;4.87;3.87;;;14.70;99.90;;;;;;5011155;28;20728;-72
2023/08/29 01:07:56;;;;;;;6.03;3.30;;;14.70;99.90;;;;;;5002737;28;20425;-72
2023/08/29 01:10:29;;;;;;;3.60;3.40;;;14.60;99.90;;;;;;5012195;28;20551;-73
2023/08/29 01:13:09;;;;;;;3.93;3.60;;;14.60;99.90;;;;;;5011785;28;20490;-73
2023/08/29 01:15:36;;;;;;;3.40;3.20;;;14.70;99.90;;;;;;5006339;28;20560;-73
2023/08/29 01:18:08;;;;;;;5.10;3.40;;;14.70;99.90;;;;;;5011091;28;20467;-72
2023/08/29 01:20:37;;;;;;;3.90;3.60;;;14.70;99.90;;;;;;5006650;28;20482;-73
2023/08/29 01:23:10;;;;;;;5.93;3.53;;;14.70;99.90;;;;;;5005271;28;20811;-72
2023/08/29 01:25:46;;;;;;;3.77;3.40;;;14.80;99.90;;;;;;5011801;28;20529;-72
2023/08/29 01:28:15;;;;;;;3.80;3.50;;;14.70;99.90;;;;;;5011005;28;20765;-73
2023/08/29 01:30:43;;;;;;;3.30;3.10;;;14.80;99.90;;;;;;5011274;28;20465;-72
2023/08/29 01:33:10;;;;;;;4.37;3.23;;;14.70;99.90;;;;;;5009314;28;20556;-72
2023/08/29 01:35:43;;;;;;;11.00;3.63;;;14.80;99.90;;;;;;5009011;28;20483;-72
2023/08/29 01:38:09;;;;;;;4.73;3.30;;;14.80;99.90;;;;;;5011920;28;20424;-72
2023/08/29 01:40:37;;;;;;;3.53;3.23;;;14.80;99.90;;;;;;5011541;28;20510;-72
2023/08/29 01:43:03;;;;;;;4.47;2.90;;;14.80;99.90;;;;;;5011512;28;20432;-72
2023/08/29 01:45:31;;;;;;;9.50;3.87;;;14.70;99.90;;;;;;5011442;28;20508;-72
2023/08/29 01:47:58;;;;;;;15.53;3.90;;;14.80;99.90;;;;;;5011328;28;20416;-73
2023/08/29 01:50:26;;;;;;;6.80;3.27;;;14.80;99.90;;;;;;5006440;28;20473;-72
2023/08/29 01:52:53;;;;;;;5.50;3.27;;;14.80;99.90;;;;;;5005411;28;20454;-72
2023/08/29 01:55:21;;;;;;;4.27;3.07;;;14.80;99.90;;;;;;5010748;28;20809;-72
2023/08/29 01:57:51;;;;;;;3.80;3.50;;;14.80;99.90;;;;;;5011768;28;20447;-73
2023/08/29 02:00:19;;;;;;;5.10;3.20;;;14.80;99.90;;;;;;5010594;28;20445;-72
2023/08/29 02:02:47;;;;;;;7.90;3.43;;;14.70;99.90;;;;;;5004427;28;20516;-73
2023/08/29 02:05:13;;;;;;;5.13;3.30;;;14.70;99.90;;;;;;5011435;28;20475;-72
2023/08/29 02:07:40;;;;;;;3.43;3.13;;;14.70;99.90;;;;;;5007874;28;20484;-72
2023/08/29 02:10:08;;;;;;;3.47;3.27;;;14.70;99.90;;;;;;5011214;28;20617;-72
2023/08/29 02:12:35;;;;;;;5.53;3.00;;;14.70;99.90;;;;;;5011005;28;20421;-72
2023/08/29 02:15:02;;;;;;;7.40;3.30;;;14.70;99.90;;;;;;5010905;28;20458;-72
2023/08/29 02:17:29;;;;;;;3.03;2.77;;;14.70;99.90;;;;;;5010519;28;20440;-72
2023/08/29 02:19:57;;;;;;;3.90;3.60;;;14.70;99.90;;;;;;5010695;28;20478;-72
2023/08/29 02:22:24;;;;;;;3.57;3.20;;;14.70;99.90;;;;;;5010304;28;20458;-72
2023/08/29 02:24:50;;;;;;;4.20;3.30;;;14.70;99.90;;;;;;5009233;28;20802;-72
2023/08/29 02:27:17;;;;;;;3.63;3.43;;;14.70;99.90;;;;;;5011294;28;20451;-73
2023/08/29 02:29:44;;;;;;;3.80;3.50;;;14.70;99.90;;;;;;5008584;28;20456;-72
2023/08/29 02:32:10;;;;;;;6.63;4.20;;;14.70;99.90;;;;;;5010555;28;20954;-72
2023/08/29 02:34:37;;;;;;;5.20;3.50;;;14.70;99.90;;;;;;5010864;28;20507;-72
2023/08/29 02:37:05;;;;;;;4.63;3.63;;;14.70;99.90;;;;;;5008901;28;20434;-72
2023/08/29 02:39:32;;;;;;;3.90;3.57;;;14.70;99.90;;;;;;5008418;28;20446;-72
2023/08/29 02:41:58;;;;;;;3.77;3.43;;;14.70;99.90;;;;;;5004731;28;20470;-72
2023/08/29 02:44:25;;;;;;;4.07;3.30;;;14.70;99.90;;;;;;5010047;28;20928;-72
2023/08/29 02:46:51;;;;;;;3.63;3.17;;;14.70;99.90;;;;;;5004387;28;20489;-72
2023/08/29 02:49:18;;;;;;;3.20;3.00;;;14.70;99.90;;;;;;5010737;28;20416;-72
2023/08/29 02:51:45;;;;;;;6.53;3.60;;;14.60;99.90;;;;;;5009424;28;20503;-72
2023/08/29 02:54:13;;;;;;;3.60;3.30;;;14.60;99.90;;;;;;5010938;28;20420;-72
2023/08/29 02:56:39;;;;;;;4.03;3.50;;;14.60;99.90;;;;;;5007046;28;20444;-72
2023/08/29 02:59:06;;;;;;;3.50;3.20;;;14.60;99.90;;;;;;5010685;28;20898;-72
2023/08/29 03:01:33;;;;;;;5.30;3.47;;;14.60;99.90;;;;;;5010442;28;20479;-72
2023/08/29 03:03:59;;;;;;;4.27;3.37;;;14.70;99.90;;;;;;5010331;28;20454;-72
2023/08/29 03:06:26;;;;;;;5.50;3.10;;;14.70;99.90;;;;;;5010832;28;20531;-73
2023/08/29 03:08:52;;;;;;;4.53;3.90;;;14.70;99.90;;;;;;5010264;28;20481;-72
2023/08/29 03:11:20;;;;;;;7.27;3.93;;;14.60;99.90;;;;;;5007419;28;20548;-73
2023/08/29 03:13:47;;;;;;;4.00;3.70;;;14.60;99.90;;;;;;5006998;28;20858;-72
2023/08/29 03:16:14;;;;;;;4.10;3.37;;;14.60;99.90;;;;;;5005846;28;20439;-73
2023/08/29 03:18:41;;;;;;;6.20;3.70;;;14.60;99.90;;;;;;5010021;28;20433;-72
2023/08/29 03:21:08;;;;;;;4.07;3.77;;;14.60;99.90;;;;;;5010159;28;20950;-72
2023/08/29 03:23:35;;;;;;;7.23;4.00;;;14.60;99.90;;;;;;5010369;28;20418;-72
2023/08/29 03:26:06;;;;;;;4.70;3.77;;;14.50;99.90;;;;;;5005993;28;20451;-73
2023/08/29 03:28:34;;;;;;;4.00;3.70;;;14.50;99.90;;;;;;5010347;28;20880;-73
2023/08/29 03:31:08;;;;;;;5.63;3.73;;;14.50;99.90;;;;;;5009647;28;20494;-72
2023/08/29 03:33:35;;;;;;;4.17;3.87;;;14.50;99.90;;;;;;5006027;28;20516;-73
2023/08/29 03:36:02;;;;;;;5.90;3.90;;;14.50;99.90;;;;;;5010453;28;20478;-72
2023/08/29 03:38:29;;;;;;;8.30;3.53;;;14.50;99.90;;;;;;5010202;28;20473;-73
2023/08/29 03:40:56;;;;;;;4.77;3.90;;;14.50;99.90;;;;;;5009667;28;20466;-72
2023/08/29 03:43:24;;;;;;;4.30;4.00;;;14.50;99.90;;;;;;5013667;28;20992;-73
2023/08/29 03:45:57;;;;;;;8.40;3.80;;;14.50;99.90;;;;;;5010167;28;20533;-73
2023/08/29 03:48:23;;;;;;;5.47;4.20;;;14.50;99.90;;;;;;5013858;28;20415;-72
2023/08/29 03:50:49;;;;;;;4.90;3.53;;;14.40;99.90;;;;;;5012205;28;20577;-72
2023/08/29 03:53:16;;;;;;;5.20;4.00;;;14.40;99.90;;;;;;5011845;28;20207;-72
2023/08/29 03:55:43;;;;;;;9.20;4.10;;;14.40;99.90;;;;;;5015935;28;20462;-72
2023/08/29 03:58:10;;;;;;;6.10;4.03;;;14.40;99.90;;;;;;5013700;28;20421;-72
2023/08/29 04:00:36;;;;;;;6.27;3.80;;;14.40;99.90;;;;;;5013306;28;20481;-72
2023/08/29 04:03:06;;;;;;;4.33;4.03;;;14.40;99.90;;;;;;5013641;28;20450;-72
2023/08/29 04:05:34;;;;;;;3.80;3.50;;;14.40;99.90;;;;;;5013337;28;20450;-73
2023/08/29 04:08:01;;;;;;;4.57;3.70;;;14.40;99.90;;;;;;5013561;28;20817;-72
2023/08/29 04:10:28;;;;;;;3.67;3.47;;;14.40;99.90;;;;;;5011013;28;20501;-72
2023/08/29 04:12:54;;;;;;;4.73;4.00;;;14.40;99.90;;;;;;5010034;28;21010;-72
2023/08/29 04:15:23;;;;;;;4.47;3.50;;;14.40;99.90;;;;;;5012511;28;20433;-72
2023/08/29 04:17:50;;;;;;;4.70;3.40;;;14.40;99.90;;;;;;5012739;28;20945;-72
2023/08/29 04:20:18;;;;;;;3.47;3.17;;;14.50;99.90;;;;;;5012903;28;20447;-72
2023/08/29 04:22:46;;;;;;;3.70;3.40;;;14.50;99.90;;;;;;5012705;28;20509;-73
2023/08/29 04:25:13;;;;;;;5.13;3.50;;;14.50;99.90;;;;;;5012375;28;20861;-73
2023/08/29 04:27:41;;;;;;;4.70;3.30;;;14.50;99.90;;;;;;5012134;28;20510;-72
2023/08/29 04:30:08;;;;;;;4.40;3.27;;;14.50;99.90;;;;;;5008411;28;20456;-73
2023/08/29 04:32:36;;;;;;;3.50;3.23;;;14.50;99.90;;;;;;5011843;28;20935;-72
2023/08/29 04:35:05;;;;;;;3.67;3.37;;;14.50;99.90;;;;;;5011937;28;20880;-72
2023/08/29 04:37:33;;;;;;;3.10;2.90;;;14.50;99.90;;;;;;5012568;28;20919;-72
2023/08/29 04:40:00;;;;;;;4.80;3.20;;;14.60;99.90;;;;;;5012762;28;20905;-72
2023/08/29 04:42:27;;;;;;;8.67;3.60;;;14.60;99.90;;;;;;5009608;28;21048;-72
2023/08/29 04:44:54;;;;;;;3.27;3.07;;;14.60;99.90;;;;;;5012931;28;20421;-72
2023/08/29 04:47:21;;;;;;;3.67;3.37;;;14.70;99.90;;;;;;5008586;28;20491;-72
2023/08/29 04:49:48;;;;;;;5.83;3.40;;;14.70;99.90;;;;;;5011652;28;20451;-73
2023/08/29 04:52:14;;;;;;;3.40;3.10;;;14.70;99.90;;;;;;5011364;28;20478;-71
2023/08/29 04:54:42;;;;;;;3.47;3.17;;;14.70;99.90;;;;;;5012096;28;20537;-71
2023/08/29 04:57:09;;;;;;;3.93;3.53;;;14.70;99.90;;;;;;5011521;28;20902;-71
2023/08/29 04:59:35;;;;;;;5.50;3.17;;;14.80;99.90;;;;;;5012316;28;20472;-72
2023/08/29 05:02:02;;;;;;;6.20;3.60;;;14.80;99.90;;;;;;5007876;28;20449;-71
2023/08/29 05:04:29;;;;;;;5.00;3.40;;;14.80;99.90;;;;;;5010599;28;20823;-71
2023/08/29 05:06:56;;;;;;;7.40;3.30;;;14.80;99.90;;;;;;5012418;28;20504;-71
2023/08/29 05:09:24;;;;;;;4.17;2.87;;;14.80;99.90;;;;;;5011570;28;20455;-71
2023/08/29 05:11:51;;;;;;;4.17;3.30;;;14.80;99.90;;;;;;5010938;28;20476;-71
2023/08/29 05:14:18;;;;;;;8.30;4.23;;;14.80;99.90;;;;;;5010124;28;20952;-70
2023/08/29 05:16:45;;;;;;;3.97;3.20;;;14.80;99.90;;;;;;5011554;28;20483;-71
2023/08/29 05:19:12;;;;;;;5.33;3.60;;;14.80;99.90;;;;;;5012355;28;20450;-71
2023/08/29 05:21:38;;;;;;;7.77;3.50;;;14.80;99.90;;;;;;5012089;28;20433;-71
2023/08/29 05:24:06;;;;;;;3.57;3.27;;;14.90;99.90;;;;;;5012307;28;20447;-71
2023/08/29 05:26:33;;;;;;;7.50;3.50;;;14.90;99.90;;;;;;5011046;28;20433;-70
2023/08/29 05:29:01;;;;;;;4.30;3.50;;;14.90;99.90;;;;;;5010094;28;20485;-71
2023/08/29 05:31:28;;;;;;;3.57;3.27;;;14.90;99.90;;;;;;5011160;28;20541;-71
2023/08/29 05:33:54;;;;;;;4.30;3.43;;;14.90;99.90;;;;;;5012036;28;20458;-71
2023/08/29 05:36:21;;;;;;;4.43;3.90;;;14.90;99.90;;;;;;5012103;28;20454;-71
2023/08/29 05:38:48;;;;;;;4.70;3.70;;;14.90;99.90;;;;;;5011462;28;20421;-71
2023/08/29 05:41:15;;;;;;;3.80;3.37;;;14.90;99.90;;;;;;5010050;28;20543;-70
2023/08/29 05:43:41;;;;;;;3.40;3.10;;;14.90;99.90;;;;;;5011832;28;20440;-71
2023/08/29 05:46:09;;;;;;;3.80;3.23;;;14.90;99.90;;;;;;5011721;28;20496;-71
2023/08/29 05:48:36;;;;;;;3.50;3.17;;;14.90;99.90;;;;;;5011948;28;20640;-71
2023/08/29 05:51:03;;;;;;;5.80;3.33;;;14.90;99.90;;;;;;5009892;28;20461;-70
2023/08/29 05:53:29;;;;;;;3.67;3.20;;;14.90;99.90;;;;;;5011204;28;20454;-71
2023/08/29 05:55:56;;;;;;;3.63;3.43;;;14.90;99.90;;;;;;5007394;28;20437;-71
2023/08/29 05:58:23;;;;;;;5.33;3.53;;;14.90;99.90;;;;;;5007997;28;20489;-71
2023/08/29 06:00:50;;;;;;;4.57;3.83;;;14.90;99.90;;;;;;5009347;28;20449;-70
2023/08/29 06:03:18;;;;;;;4.93;3.80;;;14.90;99.90;;;;;;5011164;28;20458;-71
2023/08/29 06:05:48;;;;;;;7.83;3.60;;;14.90;99.90;;;;;;5010945;28;20980;-71
2023/08/29 06:08:15;;;;;;;5.00;4.20;;;15.00;99.90;;;;;;5010141;28;20490;-71
2023/08/29 06:10:42;;;;;;;7.60;3.90;;;15.00;99.90;;;;;;5010975;28;20504;-71
2023/08/29 06:13:09;;;;;;;3.60;3.40;;;15.00;99.90;;;;;;5011215;28;20512;-71
2023/08/29 06:15:35;;;;;;;4.07;3.60;;;15.00;99.90;;;;;;5011378;28;20433;-71
2023/08/29 06:18:02;;;;;;;3.90;3.60;;;15.10;99.90;;;;;;5011347;28;20450;-71
2023/08/29 06:20:31;;;;;;;7.80;3.70;;;15.10;99.90;;;;;;5010989;28;20462;-71
2023/08/29 06:22:58;;;;;;;4.63;3.83;;;15.20;99.90;;;;;;5010638;28;20464;-71
2023/08/29 06:25:25;;;;;;;4.73;3.57;;;15.20;99.90;;;;;;5011296;28;20424;-69
2023/08/29 06:27:51;;;;;;;4.27;3.30;;;15.30;99.90;;;;;;5007033;28;20453;-70
2023/08/29 06:30:18;;;;;;;5.03;3.60;;;15.30;99.90;;;;;;5010994;28;21050;-70
2023/08/29 06:32:45;;;;;;;3.80;3.40;;;15.40;99.90;;;;;;5010788;28;20479;-70
2023/08/29 06:35:11;;;;;;;4.93;3.70;;;15.40;99.90;;;;;;5011410;28;20475;-71
2023/08/29 06:37:39;;;;;;;4.27;3.07;;;15.50;99.90;;;;;;5010735;28;20848;-72
2023/08/29 06:40:10;;;;;;;4.03;3.63;;;15.50;99.90;;;;;;5011144;28;20504;-71
2023/08/29 06:42:36;;;;;;;3.57;3.30;;;15.60;99.90;;;;;;5011271;28;20794;-71
2023/08/29 06:45:03;;;;;;;3.63;3.33;;;15.60;99.90;;;;;;5010998;28;20839;-70
2023/08/29 06:47:30;;;;;;;6.80;3.30;;;15.70;99.90;;;;;;5010716;28;20980;-69
2023/08/29 06:49:57;;;;;;;6.60;3.40;;;15.70;99.90;;;;;;5010724;28;20427;-71
2023/08/29 06:52:23;;;;;;;6.40;3.40;;;15.80;99.90;;;;;;5010570;28;20476;-71
2023/08/29 06:54:51;;;;;;;3.53;3.23;;;15.90;99.90;;;;;;5011024;28;20926;-71
2023/08/29 06:57:18;;;;;;;4.30;3.43;;;15.90;99.90;;;;;;5011232;28;20446;-71
2023/08/29 06:59:45;;;;;;;4.03;3.07;;;16.00;99.90;;;;;;5010693;28;20516;-71
2023/08/29 07:02:11;;;;;;;5.63;3.27;;;16.00;99.90;;;;;;5010393;28;20510;-71
2023/08/29 07:04:38;;;;;;;5.00;3.33;;;16.10;99.90;;;;;;5010538;28;20475;-71
2023/08/29 07:07:05;;;;;;;3.60;3.30;;;16.10;99.90;;;;;;5010711;28;20942;-71
2023/08/29 07:09:30;;;;;;;4.63;3.30;;;16.20;99.90;;;;;;5011013;28;20428;-71
2023/08/29 07:11:59;;;;;;;8.43;3.43;;;16.20;99.90;;;;;;5010409;28;20889;-71
2023/08/29 07:14:25;;;;;;;3.97;3.57;;;16.30;99.90;;;;;;5010454;28;20265;-71
2023/08/29 07:16:52;;;;;;;3.70;3.40;;;16.30;99.90;;;;;;5013426;28;20454;-71
2023/08/29 07:19:19;;;;;;;12.33;3.40;;;16.40;99.90;;;;;;5014280;28;20429;-71
2023/08/29 07:21:46;;;;;;;4.10;3.53;;;16.40;99.90;;;;;;5014181;28;20974;-71
2023/08/29 07:24:13;;;;;;;5.33;3.80;;;16.40;99.90;;;;;;5014440;28;20429;-71
2023/08/29 07:26:39;;;;;;;3.80;3.43;;;16.50;99.90;;;;;;5014377;28;20475;-71
2023/08/29 07:29:07;;;;;;;3.23;2.90;;;16.60;99.90;;;;;;5014590;28;20508;-71
2023/08/29 07:31:34;;;;;;;3.10;2.90;;;16.70;99.90;;;;;;5013708;28;20903;-71
2023/08/29 07:34:01;;;;;;;4.20;3.30;;;16.80;99.90;;;;;;5014637;28;20421;-71
2023/08/29 07:36:27;;;;;;;5.00;3.03;;;17.00;99.90;;;;;;5014255;28;20478;-71
2023/08/29 07:38:54;;;;;;;5.03;3.00;;;17.20;99.90;;;;;;5014059;28;20914;-71
2023/08/29 07:41:20;;;;;;;3.77;2.87;;;17.50;99.90;;;;;;5013779;28;20517;-71
2023/08/29 07:43:47;;;;;;;4.03;3.20;;;17.60;99.90;;;;;;5013936;28;20421;-71
2023/08/29 07:46:15;;;;;;;4.60;3.10;;;17.70;99.90;;;;;;5013985;28;20537;-71
2023/08/29 07:48:42;;;;;;;6.90;2.70;;;17.80;99.90;;;;;;5014188;28;20544;-71
2023/08/29 07:51:08;;;;;;;3.40;3.10;;;18.10;99.90;;;;;;5013495;28;20494;-71
2023/08/29 07:53:35;;;;;;;8.47;3.60;;;18.20;99.90;;;;;;5013817;28;20450;-71
2023/08/29 07:56:03;;;;;;;4.27;2.97;;;18.40;99.90;;;;;;5013789;28;20429;-71
2023/08/29 07:58:30;;;;;;;3.13;2.83;;;18.40;99.90;;;;;;5013691;28;20454;-71
2023/08/29 08:00:56;;;;;;;4.97;3.20;;;18.40;99.90;;;;;;5013696;28;20476;-71
2023/08/29 08:03:24;;;;;;;5.43;2.90;;;18.50;99.90;;;;;;5013655;28;20446;-71
2023/08/29 08:05:51;;;;;;;4.13;3.00;;;18.70;99.90;;;;;;5013704;28;20924;-71
2023/08/29 08:08:17;;;;;;;6.17;3.07;;;18.90;99.90;;;;;;5013529;28;20458;-71
2023/08/29 08:10:44;;;;;;;6.90;3.00;;;19.10;99.90;;;;;;5013273;28;21023;-71
2023/08/29 08:13:11;;;;;;;3.73;3.30;;;19.40;99.90;;;;;;5013310;28;20524;-71
2023/08/29 08:15:37;;;;;;;5.07;2.70;;;19.60;99.90;;;;;;5013354;28;20461;-71
2023/08/29 08:18:04;;;;;;;5.83;2.60;;;19.80;99.90;;;;;;5013305;28;21042;-71
2023/08/29 08:20:32;;;;;;;2.80;2.57;;;20.00;99.90;;;;;;5013217;28;20921;-69
2023/08/29 08:22:59;;;;;;;7.33;2.30;;;20.30;99.90;;;;;;5013156;28;20453;-69
2023/08/29 08:25:26;;;;;;;4.80;2.63;;;20.50;99.90;;;;;;5013489;28;20462;-68
2023/08/29 08:27:52;;;;;;;2.77;2.57;;;20.70;99.90;;;;;;5007892;28;20482;-69
2023/08/29 08:30:19;;;;;;;4.90;2.27;;;20.80;99.90;;;;;;5013211;28;20520;-69
2023/08/29 08:32:46;;;;;;;6.13;2.50;;;20.90;99.90;;;;;;5013151;28;20501;-69
2023/08/29 08:35:12;;;;;;;3.00;2.70;;;21.00;99.90;;;;;;5013100;28;21049;-69
2023/08/29 08:37:40;;;;;;;7.17;2.37;;;21.20;99.90;;;;;;5013291;28;20489;-69
2023/08/29 08:40:10;;;;;;;9.53;2.90;;;21.20;99.90;;;;;;5013110;28;20497;-69
2023/08/29 08:42:39;;;;;;;8.13;2.43;;;21.40;99.90;;;;;;5012685;28;20525;-69
2023/08/29 08:45:07;;;;;;;3.73;2.50;;;21.60;99.90;;;;;;5013064;28;20450;-68
2023/08/29 08:47:34;;;;;;;6.27;2.83;;;21.70;99.90;;;;;;5012920;28;20872;-68
2023/08/29 08:50:02;;;;;;;3.00;2.30;;;21.60;99.90;;;;;;5012935;28;20537;-69
2023/08/29 08:52:31;;;;;;;6.97;2.27;;;21.80;99.90;;;;;;5012481;28;20485;-69
2023/08/29 08:54:59;;;;;;;6.67;2.60;;;21.90;99.90;;;;;;5012895;28;20447;-69
2023/08/29 08:57:26;;;;;;;2.33;2.13;;;21.90;99.90;;;;;;5012408;28;20972;-68
2023/08/29 08:59:53;;;;;;;4.80;2.10;;;22.00;99.90;;;;;;5012726;28;20474;-69
2023/08/29 09:02:21;;;;;;;2.43;1.90;;;22.10;99.90;;;;;;5012462;28;20662;-69
2023/08/29 09:04:47;;;;;;;4.07;2.40;;;22.30;99.90;;;;;;5012465;28;20454;-69
2023/08/29 09:07:14;;;;;;;3.90;2.50;;;22.60;99.90;;;;;;5012678;28;20513;-69
2023/08/29 09:09:41;;;;;;;2.57;2.27;;;22.70;99.90;;;;;;5012339;28;20442;-68
2023/08/29 09:12:09;;;;;;;3.37;2.30;;;22.90;99.90;;;;;;5011990;28;20563;-69
2023/08/29 09:14:35;;;;;;;6.40;2.37;;;23.30;99.90;;;;;;5012115;28;20940;-69
2023/08/29 09:17:04;;;;;;;2.80;2.10;;;23.70;99.90;;;;;;5012400;28;20447;-69
2023/08/29 09:19:33;;;;;;;4.70;1.90;;;23.70;99.90;;;;;;5012127;28;20833;-69
2023/08/29 09:22:00;;;;;;;7.67;1.70;;;23.60;99.90;;;;;;5012010;28;20473;-69
2023/08/29 09:24:34;;;;;;;3.30;1.77;;;23.80;99.90;;;;;;5012201;28;20517;-69
2023/08/29 09:27:00;;;;;;;2.70;1.70;;;23.90;99.90;;;;;;5012249;28;20498;-69
2023/08/29 09:29:31;;;;;;;3.50;1.90;;;23.90;99.90;;;;;;5011700;28;21078;-71
2023/08/29 09:31:59;;;;;;;3.40;1.83;;;23.50;99.90;;;;;;5011766;28;20490;-69
2023/08/29 09:34:29;;;;;;;2.80;1.50;;;23.40;99.90;;;;;;5011812;28;20524;-69
2023/08/29 09:36:57;;;;;;;5.17;1.53;;;23.60;99.90;;;;;;5006424;28;21010;-69
2023/08/29 09:39:24;;;;;;;3.50;1.80;;;23.70;99.90;;;;;;5011593;28;20501;-69
2023/08/29 09:42:01;;;;;;;6.00;1.20;;;24.00;99.90;;;;;;5011762;28;20462;-69
2023/08/29 09:44:30;;;;;;;8.20;1.60;;;24.30;99.90;;;;;;5011612;28;20458;-69
2023/08/29 09:46:57;;;;;;;1.60;1.50;;;24.10;99.90;;;;;;5011748;28;20447;-69
2023/08/29 09:49:30;;;;;;;3.43;1.60;;;23.70;99.90;;;;;;5011326;28;21006;-69
2023/08/29 09:52:00;;;;;;;17.33;2.37;;;23.40;99.90;;;;;;5005976;28;20548;-70
2023/08/29 09:54:30;;;;;;;1.90;1.50;;;22.80;99.90;;;;;;5011595;28;21006;-70
2023/08/29 09:57:00;;;;;;;2.90;1.70;;;22.50;99.90;;;;;;5011747;28;20446;-70
2023/08/29 09:59:30;;;;;;;2.40;1.63;;;22.20;99.90;;;;;;5011431;28;20450;-70
2023/08/29 10:01:57;;;;;;;2.80;1.77;;;21.90;99.90;;;;;;5011240;28;21033;-69
2023/08/29 10:04:26;;;;;;;10.23;1.83;;;21.60;99.90;;;;;;5011391;28;20481;-70
2023/08/29 10:06:54;;;;;;;3.53;1.50;;;21.40;99.90;;;;;;5005280;28;20451;-70
2023/08/29 10:09:21;;;;;;;3.63;1.87;;;21.50;99.90;;;;;;5011677;28;20462;-70
2023/08/29 10:11:49;;;;;;;2.60;1.70;;;21.40;99.90;;;;;;5011111;28;20482;-70
2023/08/29 10:14:17;;;;;;;2.10;1.50;;;21.30;99.90;;;;;;5010916;28;20458;-70
2023/08/29 10:16:46;;;;;;;6.93;1.70;;;21.30;99.90;;;;;;5011436;28;20516;-70
2023/08/29 10:19:14;;;;;;;2.90;1.63;;;21.30;99.90;;;;;;5011378;28;20442;-70
2023/08/29 10:21:43;;;;;;;2.60;2.10;;;21.20;99.90;;;;;;5009591;28;20470;-70
2023/08/29 10:24:11;;;;;;;3.23;1.40;;;21.00;99.90;;;;;;5011295;28;20468;-70
2023/08/29 10:26:39;;;;;;;3.83;1.83;;;20.90;99.90;;;;;;5011110;28;20504;-70
2023/08/29 10:29:06;;;;;;;4.10;2.23;;;20.70;99.90;;;;;;5011505;28;20561;-70
2023/08/29 10:31:34;;;;;;;2.50;1.73;;;20.50;99.90;;;;;;5010770;28;20489;-70
2023/08/29 10:34:04;;;;;;;3.40;1.90;;;20.50;99.90;;;;;;5011051;28;20450;-70
2023/08/29 10:36:31;;;;;;;4.70;2.03;;;20.40;99.90;;;;;;5010929;28;20553;-70
2023/08/29 10:38:58;;;;;;;7.47;1.80;;;20.40;99.90;;;;;;5011226;28;20936;-70
2023/08/29 10:41:25;;;;;;;3.40;1.77;;;20.40;99.90;;;;;;5010393;28;20470;-70
2023/08/29 10:44:25;;;;;;;2.97;1.90;;;20.30;99.90;;;;;;5004530;28;20951;-70
2023/08/29 10:46:52;;;;;;;3.80;2.20;;;20.30;99.90;;;;;;5004253;28;20492;-70
2023/08/29 10:49:21;;;;;;;3.60;2.20;;;20.30;99.90;;;;;;5010538;28;21019;-70
2023/08/29 10:52:07;;;;;;;3.60;2.50;;;20.30;99.90;;;;;;5013033;28;20458;-70
2023/08/29 10:54:34;;;;;;;2.40;2.20;;;20.40;99.90;;;;;;5014656;28;20871;-70
2023/08/29 10:57:01;;;;;;;4.70;2.80;;;20.40;99.90;;;;;;5014931;28;20442;-70
2023/08/29 10:59:32;;;;;;;2.73;1.67;;;20.40;99.90;;;;;;5014815;28;20450;-70
2023/08/29 11:02:21;;;;;;;2.53;1.67;;;20.40;99.90;;;;;;5014678;28;20520;-70
2023/08/29 11:04:51;;;;;;;2.10;1.90;;;20.40;99.90;;;;;;5014925;28;20492;-70
2023/08/29 11:07:25;;;;;;;2.60;1.43;;;20.40;99.90;;;;;;5015170;28;20442;-70
2023/08/29 11:10:12;;;;;;;12.20;1.63;;;20.50;99.90;;;;;;5007615;28;20446;-70
2023/08/29 11:13:07;;;;;;;3.93;1.67;;;20.50;99.90;;;;;;5014243;28;20577;-70
2023/08/29 11:16:06;;;;;;;2.23;1.90;;;20.60;99.90;;;;;;5014464;28;20458;-70
2023/08/29 11:18:33;;;;;;;2.97;1.67;;;20.70;99.90;;;;;;5009970;28;20464;-71
2023/08/29 11:21:06;;;;;;;3.40;1.77;;;20.80;99.90;;;;;;5014349;28;20469;-70
2023/08/29 11:23:36;;;;;;;2.70;1.60;;;20.90;99.90;;;;;;5014740;28;20460;-70
2023/08/29 11:26:03;;;;;;;4.03;2.23;;;20.90;99.90;;;;;;5014738;28;20450;-70
2023/08/29 11:28:32;;;;;;;3.00;1.80;;;21.00;99.90;;;;;;5014275;28;20458;-70
2023/08/29 11:30:59;;;;;;;1.50;1.40;;;21.00;99.90;;;;;;5014047;28;20569;-70
2023/08/29 11:33:31;;;;;;;1.60;1.50;;;21.20;99.90;;;;;;5013977;28;20559;-70
2023/08/29 11:35:59;;;;;;;5.10;1.67;;;21.20;99.90;;;;;;5007987;28;20477;-70
2023/08/29 11:38:29;;;;;;;4.13;1.80;;;21.20;99.90;;;;;;5014563;28;20446;-70
2023/08/29 11:40:56;;;;;;;8.10;1.70;;;21.00;99.90;;;;;;5007326;28;20502;-70
2023/08/29 11:43:23;;;;;;;3.07;1.53;;;20.90;99.90;;;;;;5013930;28;20442;-70
2023/08/29 11:45:52;;;;;;;2.13;1.77;;;20.70;99.90;;;;;;5013808;28;20952;-70
2023/08/29 11:48:23;;;;;;;2.10;1.77;;;20.60;99.90;;;;;;5014141;28;20454;-70
2023/08/29 11:50:52;;;;;;;2.77;1.77;;;20.50;99.90;;;;;;5013889;28;20462;-70
2023/08/29 11:53:22;;;;;;;3.67;1.83;;;20.50;99.90;;;;;;5014030;28;20485;-70
2023/08/29 11:55:51;;;;;;;5.37;1.53;;;20.60;99.90;;;;;;5013887;28;20443;-70
2023/08/29 11:58:17;;;;;;;1.80;1.70;;;20.70;99.90;;;;;;5013657;28;21002;-70
2023/08/29 12:00:45;;;;;;;1.60;1.50;;;20.70;99.90;;;;;;5013273;28;20552;-70
2023/08/29 12:03:12;;;;;;;2.57;1.60;;;20.70;99.90;;;;;;5013356;28;20448;-70
2023/08/29 12:05:41;;;;;;;2.47;1.50;;;20.60;99.90;;;;;;5013563;28;20862;-70
2023/08/29 12:08:07;;;;;;;1.63;1.50;;;20.70;99.90;;;;;;5013860;28;21071;-70
2023/08/29 12:10:34;;;;;;;6.90;1.60;;;20.70;99.90;;;;;;5013250;28;20888;-70
2023/08/29 12:13:12;;;;;;;2.60;1.50;;;20.70;99.90;;;;;;5013110;28;20494;-70
2023/08/29 12:15:39;;;;;;;3.00;1.50;;;20.80;99.90;;;;;;5013490;28;20481;-70
2023/08/29 12:18:06;;;;;;;2.20;1.73;;;20.90;99.90;;;;;;5013283;28;20992;-70
2023/08/29 12:20:33;;;;;;;1.97;1.40;;;20.90;99.90;;;;;;5013227;28;20474;-70
2023/08/29 12:23:00;;;;;;;2.10;1.57;;;20.90;99.90;;;;;;5013388;28;20889;-70
2023/08/29 12:25:27;;;;;;;1.70;1.43;;;20.90;99.90;;;;;;5013053;28;20454;-70
2023/08/29 12:27:53;;;;;;;2.40;1.40;;;21.00;99.90;;;;;;5013410;28;20447;-70
2023/08/29 12:30:22;;;;;;;5.50;1.40;;;21.00;99.90;;;;;;5013310;28;20466;-70
2023/08/29 12:32:49;;;;;;;2.70;1.43;;;21.10;99.90;;;;;;5012893;28;20820;-70
2023/08/29 12:35:17;;;;;;;3.77;1.70;;;21.60;99.90;;;;;;5013480;28;20442;-70
2023/08/29 12:37:44;;;;;;;2.17;1.43;;;22.30;99.90;;;;;;5013194;28;20466;-70
2023/08/29 12:40:12;;;;;;;9.17;1.87;;;22.70;99.90;;;;;;5012799;28;20458;-70
2023/08/29 12:42:39;;;;;;;4.90;1.37;;;23.10;99.90;;;;;;5012552;28;21018;-70
2023/08/29 12:45:07;;;;;;;5.10;1.80;;;23.10;99.90;;;;;;5013140;28;20481;-70
2023/08/29 12:47:37;;;;;;;2.90;1.37;;;22.90;99.90;;;;;;5012686;28;20458;-70
2023/08/29 12:50:04;;;;;;;4.40;1.53;;;22.80;99.90;;;;;;5012976;28;20446;-70